sensor_id;sensor_type;location;lat;lon;timestamp;pressure;altitude;pressure_sealevel;temperature;humidity
74893;BME280;63446;56.272;43.922;2023-12-14T00:01:15;102328.56;;;-9.71;53.74
74893;BME280;63446;56.272;43.922;2023-12-14T00:03:41;102326.03;;;-9.71;53.67
74893;BME280;63446;56.272;43.922;2023-12-14T00:06:13;102339.53;;;-9.69;53.65
74893;BME280;63446;56.272;43.922;2023-12-14T00:08:40;102330.13;;;-9.69;53.57
74893;BME280;63446;56.272;43.922;2023-12-14T00:11:07;102326.91;;;-9.72;53.38
74893;BME280;63446;56.272;43.922;2023-12-14T00:13:34;102329.47;;;-9.72;53.57
74893;BME280;63446;56.272;43.922;2023-12-14T00:16:01;102324.34;;;-9.72;53.61
74893;BME280;63446;56.272;43.922;2023-12-14T00:18:27;102328.56;;;-9.71;53.66
74893;BME280;63446;56.272;43.922;2023-12-14T00:20:53;102325.09;;;-9.70;53.71
74893;BME280;63446;56.272;43.922;2023-12-14T00:23:20;102332.69;;;-9.69;53.76
74893;BME280;63446;56.272;43.922;2023-12-14T00:25:46;102327.50;;;-9.67;53.65
74893;BME280;63446;56.272;43.922;2023-12-14T00:28:13;102334.25;;;-9.66;54.03
74893;BME280;63446;56.272;43.922;2023-12-14T00:30:39;102334.25;;;-9.66;53.89
74893;BME280;63446;56.272;43.922;2023-12-14T00:33:06;102328.31;;;-9.67;53.70
74893;BME280;63446;56.272;43.922;2023-12-14T00:35:32;102333.44;;;-9.67;53.97
74893;BME280;63446;56.272;43.922;2023-12-14T00:37:58;102328.13;;;-9.64;53.66
74893;BME280;63446;56.272;43.922;2023-12-14T00:40:24;102330.69;;;-9.64;53.83
74893;BME280;63446;56.272;43.922;2023-12-14T00:42:51;102323.84;;;-9.63;53.81
74893;BME280;63446;56.272;43.922;2023-12-14T00:45:17;102327.03;;;-9.60;53.64
74893;BME280;63446;56.272;43.922;2023-12-14T00:47:43;102318.53;;;-9.60;53.75
74893;BME280;63446;56.272;43.922;2023-12-14T00:50:09;102321.81;;;-9.58;53.76
74893;BME280;63446;56.272;43.922;2023-12-14T00:52:35;102317.53;;;-9.57;53.84
74893;BME280;63446;56.272;43.922;2023-12-14T00:55:01;102319.09;;;-9.55;54.02
74893;BME280;63446;56.272;43.922;2023-12-14T00:57:30;102313.81;;;-9.52;53.88
74893;BME280;63446;56.272;43.922;2023-12-14T00:59:56;102309.31;;;-9.48;53.94
74893;BME280;63446;56.272;43.922;2023-12-14T01:02:22;102314.28;;;-9.45;53.90
74893;BME280;63446;56.272;43.922;2023-12-14T01:04:48;102315.81;;;-9.43;53.91
74893;BME280;63446;56.272;43.922;2023-12-14T01:07:14;102305.50;;;-9.41;54.13
74893;BME280;63446;56.272;43.922;2023-12-14T01:09:40;102310.41;;;-9.38;53.95
74893;BME280;63446;56.272;43.922;2023-12-14T01:12:06;102310.50;;;-9.40;54.04
74893;BME280;63446;56.272;43.922;2023-12-14T01:14:32;102297.72;;;-9.40;54.00
74893;BME280;63446;56.272;43.922;2023-12-14T01:16:58;102313.06;;;-9.40;54.00
74893;BME280;63446;56.272;43.922;2023-12-14T01:19:24;102293.69;;;-9.44;53.97
74893;BME280;63446;56.272;43.922;2023-12-14T01:21:52;102304.91;;;-9.46;53.82
74893;BME280;63446;56.272;43.922;2023-12-14T01:24:18;102299.16;;;-9.50;53.83
74893;BME280;63446;56.272;43.922;2023-12-14T01:26:45;102315.34;;;-9.49;54.09
74893;BME280;63446;56.272;43.922;2023-12-14T01:29:11;102311.94;;;-9.50;53.93
74893;BME280;63446;56.272;43.922;2023-12-14T01:31:37;102308.56;;;-9.50;53.83
74893;BME280;63446;56.272;43.922;2023-12-14T01:34:06;102316.25;;;-9.50;54.06
74893;BME280;63446;56.272;43.922;2023-12-14T01:36:32;102318.00;;;-9.51;54.02
74893;BME280;63446;56.272;43.922;2023-12-14T01:38:58;102314.44;;;-9.48;54.17
74893;BME280;63446;56.272;43.922;2023-12-14T01:41:24;102327.97;;;-9.46;54.11
74893;BME280;63446;56.272;43.922;2023-12-14T01:43:50;102316.91;;;-9.47;54.20
74893;BME280;63446;56.272;43.922;2023-12-14T01:46:16;102299.38;;;-9.53;54.08
74893;BME280;63446;56.272;43.922;2023-12-14T01:48:42;102312.59;;;-9.46;54.10
74893;BME280;63446;56.272;43.922;2023-12-14T01:51:09;102305.84;;;-9.47;54.04
74893;BME280;63446;56.272;43.922;2023-12-14T01:53:34;102302.28;;;-9.45;54.11
74893;BME280;63446;56.272;43.922;2023-12-14T01:56:00;102304.09;;;-9.47;54.04
74893;BME280;63446;56.272;43.922;2023-12-14T01:58:26;102305.09;;;-9.49;53.86
74893;BME280;63446;56.272;43.922;2023-12-14T02:03:46;102313.88;;;-9.53;54.00
74893;BME280;63446;56.272;43.922;2023-12-14T02:06:12;102308.03;;;-9.55;53.96
74893;BME280;63446;56.272;43.922;2023-12-14T02:08:38;102316.81;;;-9.60;54.25
74893;BME280;63446;56.272;43.922;2023-12-14T02:11:04;102329.66;;;-9.61;54.09
74893;BME280;63446;56.272;43.922;2023-12-14T02:13:31;102322.25;;;-9.66;54.04
74893;BME280;63446;56.272;43.922;2023-12-14T02:15:57;102319.97;;;-9.70;54.23
74893;BME280;63446;56.272;43.922;2023-12-14T02:18:23;102333.88;;;-9.74;54.12
74893;BME280;63446;56.272;43.922;2023-12-14T02:20:50;102325.53;;;-9.78;54.00
74893;BME280;63446;56.272;43.922;2023-12-14T02:23:16;102330.00;;;-9.81;54.16
74893;BME280;63446;56.272;43.922;2023-12-14T02:25:41;102325.88;;;-9.84;54.35
74893;BME280;63446;56.272;43.922;2023-12-14T02:28:07;102327.81;;;-9.88;54.21
74893;BME280;63446;56.272;43.922;2023-12-14T02:30:34;102320.22;;;-9.89;54.23
74893;BME280;63446;56.272;43.922;2023-12-14T02:33:00;102319.56;;;-9.93;54.28
74893;BME280;63446;56.272;43.922;2023-12-14T02:35:26;102324.78;;;-9.94;54.35
74893;BME280;63446;56.272;43.922;2023-12-14T02:37:52;102313.78;;;-9.96;54.30
74893;BME280;63446;56.272;43.922;2023-12-14T02:40:18;102307.84;;;-9.97;54.34
74893;BME280;63446;56.272;43.922;2023-12-14T02:42:44;102308.94;;;-10.01;54.40
74893;BME280;63446;56.272;43.922;2023-12-14T02:45:10;102305.56;;;-10.01;54.35
74893;BME280;63446;56.272;43.922;2023-12-14T02:47:37;102318.44;;;-10.03;54.40
74893;BME280;63446;56.272;43.922;2023-12-14T02:50:03;102311.59;;;-10.02;54.49
74893;BME280;63446;56.272;43.922;2023-12-14T02:52:31;102304.75;;;-10.02;54.47
74893;BME280;63446;56.272;43.922;2023-12-14T02:54:57;102309.03;;;-10.02;54.40
74893;BME280;63446;56.272;43.922;2023-12-14T02:57:23;102303.09;;;-10.03;54.41
74893;BME280;63446;56.272;43.922;2023-12-14T02:59:49;102308.22;;;-10.03;54.39
74893;BME280;63446;56.272;43.922;2023-12-14T03:02:15;102314.16;;;-10.02;54.45
74893;BME280;63446;56.272;43.922;2023-12-14T03:04:41;102302.09;;;-10.00;54.42
74893;BME280;63446;56.272;43.922;2023-12-14T03:07:07;102301.09;;;-9.98;54.59
74893;BME280;63446;56.272;43.922;2023-12-14T03:09:33;102298.38;;;-9.95;54.49
74893;BME280;63446;56.272;43.922;2023-12-14T03:12:00;102303.28;;;-9.92;54.58
74893;BME280;63446;56.272;43.922;2023-12-14T03:14:32;102302.22;;;-9.88;54.50
74893;BME280;63446;56.272;43.922;2023-12-14T03:16:58;102295.09;;;-9.82;54.40
74893;BME280;63446;56.272;43.922;2023-12-14T03:19:24;102303.31;;;-9.77;54.41
74893;BME280;63446;56.272;43.922;2023-12-14T03:21:50;102300.59;;;-9.74;54.56
74893;BME280;63446;56.272;43.922;2023-12-14T03:24:16;102293.63;;;-9.72;54.40
74893;BME280;63446;56.272;43.922;2023-12-14T03:26:42;102297.50;;;-9.65;54.54
74893;BME280;63446;56.272;43.922;2023-12-14T03:29:09;102302.44;;;-9.62;54.41
74893;BME280;63446;56.272;43.922;2023-12-14T03:31:35;102293.66;;;-9.58;54.34
74893;BME280;63446;56.272;43.922;2023-12-14T03:34:05;102295.31;;;-9.57;54.33
74893;BME280;63446;56.272;43.922;2023-12-14T03:36:32;102303.72;;;-9.55;54.23
74893;BME280;63446;56.272;43.922;2023-12-14T03:38:57;102301.91;;;-9.53;54.28
74893;BME280;63446;56.272;43.922;2023-12-14T03:41:24;102303.47;;;-9.50;54.40
74893;BME280;63446;56.272;43.922;2023-12-14T03:43:49;102304.19;;;-9.48;54.53
74893;BME280;63446;56.272;43.922;2023-12-14T03:46:16;102310.78;;;-9.44;54.22
74893;BME280;63446;56.272;43.922;2023-12-14T03:48:41;102301.38;;;-9.44;54.23
74893;BME280;63446;56.272;43.922;2023-12-14T03:51:07;102289.22;;;-9.40;54.16
74893;BME280;63446;56.272;43.922;2023-12-14T03:53:33;102292.47;;;-9.38;54.30
74893;BME280;63446;56.272;43.922;2023-12-14T03:56:00;102300.91;;;-9.36;54.39
74893;BME280;63446;56.272;43.922;2023-12-14T03:58:26;102296.50;;;-9.34;54.25
74893;BME280;63446;56.272;43.922;2023-12-14T04:00:54;102296.44;;;-9.32;54.25
74893;BME280;63446;56.272;43.922;2023-12-14T04:03:19;102306.56;;;-9.31;54.37
74893;BME280;63446;56.272;43.922;2023-12-14T04:05:45;102303.94;;;-9.29;54.34
74893;BME280;63446;56.272;43.922;2023-12-14T04:08:11;102306.41;;;-9.28;54.27
74893;BME280;63446;56.272;43.922;2023-12-14T04:10:37;102308.03;;;-9.27;54.34
74893;BME280;63446;56.272;43.922;2023-12-14T04:13:04;102305.41;;;-9.25;54.40
74893;BME280;63446;56.272;43.922;2023-12-14T04:15:30;102302.91;;;-9.27;54.36
74893;BME280;63446;56.272;43.922;2023-12-14T04:17:56;102296.69;;;-9.23;54.28
74893;BME280;63446;56.272;43.922;2023-12-14T04:20:22;102291.50;;;-9.21;54.31
74893;BME280;63446;56.272;43.922;2023-12-14T04:22:48;102296.44;;;-9.18;54.28
74893;BME280;63446;56.272;43.922;2023-12-14T04:25:14;102294.59;;;-9.16;54.39
74893;BME280;63446;56.272;43.922;2023-12-14T04:27:40;102303.72;;;-9.12;54.46
74893;BME280;63446;56.272;43.922;2023-12-14T04:30:08;102302.81;;;-9.11;54.40
74893;BME280;63446;56.272;43.922;2023-12-14T04:32:38;102303.56;;;-9.09;54.26
74893;BME280;63446;56.272;43.922;2023-12-14T04:35:04;102310.13;;;-9.05;54.31
74893;BME280;63446;56.272;43.922;2023-12-14T04:37:30;102300.81;;;-9.06;54.38
74893;BME280;63446;56.272;43.922;2023-12-14T04:39:57;102299.06;;;-9.05;54.51
74893;BME280;63446;56.272;43.922;2023-12-14T04:42:23;102305.81;;;-9.04;54.49
74893;BME280;63446;56.272;43.922;2023-12-14T04:44:50;102290.56;;;-9.06;54.45
74893;BME280;63446;56.272;43.922;2023-12-14T04:47:16;102303.28;;;-9.04;54.48
74893;BME280;63446;56.272;43.922;2023-12-14T04:49:42;102295.69;;;-9.06;54.40
74893;BME280;63446;56.272;43.922;2023-12-14T04:52:08;102299.78;;;-9.03;54.60
74893;BME280;63446;56.272;43.922;2023-12-14T04:54:34;102301.44;;;-9.02;54.58
74893;BME280;63446;56.272;43.922;2023-12-14T04:57:06;102307.41;;;-9.02;54.41
74893;BME280;63446;56.272;43.922;2023-12-14T04:59:32;102301.34;;;-9.01;54.51
74893;BME280;63446;56.272;43.922;2023-12-14T05:01:58;102303.81;;;-8.99;54.56
74893;BME280;63446;56.272;43.922;2023-12-14T05:04:24;102313.06;;;-8.97;54.53
74893;BME280;63446;56.272;43.922;2023-12-14T05:06:50;102309.56;;;-8.96;54.37
74893;BME280;63446;56.272;43.922;2023-12-14T05:09:16;102309.56;;;-8.96;54.40
74893;BME280;63446;56.272;43.922;2023-12-14T05:11:43;102317.19;;;-8.94;54.47
74893;BME280;63446;56.272;43.922;2023-12-14T05:14:09;102322.28;;;-8.94;54.50
74893;BME280;63446;56.272;43.922;2023-12-14T05:16:35;102307.75;;;-8.94;54.61
74893;BME280;63446;56.272;43.922;2023-12-14T05:19:03;102305.91;;;-8.92;54.38
74893;BME280;63446;56.272;43.922;2023-12-14T05:21:28;102301.63;;;-8.91;54.46
74893;BME280;63446;56.272;43.922;2023-12-14T05:23:54;102305.81;;;-8.90;54.51
74893;BME280;63446;56.272;43.922;2023-12-14T05:26:20;102298.84;;;-8.88;54.49
74893;BME280;63446;56.272;43.922;2023-12-14T05:28:46;102303.91;;;-8.87;54.51
74893;BME280;63446;56.272;43.922;2023-12-14T05:31:12;102312.09;;;-8.81;54.59
74893;BME280;63446;56.272;43.922;2023-12-14T05:33:39;102302.59;;;-8.79;54.62
74893;BME280;63446;56.272;43.922;2023-12-14T05:36:05;102305.81;;;-8.76;54.59
74893;BME280;63446;56.272;43.922;2023-12-14T05:38:39;102296.19;;;-8.72;54.55
74893;BME280;63446;56.272;43.922;2023-12-14T05:41:05;102302.84;;;-8.70;54.53
74893;BME280;63446;56.272;43.922;2023-12-14T05:43:31;102305.22;;;-8.67;54.57
74893;BME280;63446;56.272;43.922;2023-12-14T05:45:57;102295.72;;;-8.65;54.52
74893;BME280;63446;56.272;43.922;2023-12-14T05:48:24;102289.72;;;-8.65;54.38
74893;BME280;63446;56.272;43.922;2023-12-14T05:50:52;102284.34;;;-8.61;54.54
74893;BME280;63446;56.272;43.922;2023-12-14T05:53:18;102287.72;;;-8.60;54.52
74893;BME280;63446;56.272;43.922;2023-12-14T05:55:44;102286.69;;;-8.57;54.36
74893;BME280;63446;56.272;43.922;2023-12-14T05:58:10;102284.97;;;-8.57;54.44
74893;BME280;63446;56.272;43.922;2023-12-14T06:00:36;102290.81;;;-8.55;54.46
74893;BME280;63446;56.272;43.922;2023-12-14T06:03:03;102277.06;;;-8.54;54.38
74893;BME280;63446;56.272;43.922;2023-12-14T06:05:30;102286.41;;;-8.53;54.36
74893;BME280;63446;56.272;43.922;2023-12-14T06:07:56;102276.16;;;-8.53;54.47
74893;BME280;63446;56.272;43.922;2023-12-14T06:10:22;102281.06;;;-8.50;54.29
74893;BME280;63446;56.272;43.922;2023-12-14T06:12:48;102287.66;;;-8.46;54.40
74893;BME280;63446;56.272;43.922;2023-12-14T06:15:14;102289.31;;;-8.45;54.38
74893;BME280;63446;56.272;43.922;2023-12-14T06:17:40;102275.56;;;-8.44;54.49
74893;BME280;63446;56.272;43.922;2023-12-14T06:20:09;102271.06;;;-8.40;54.16
74893;BME280;63446;56.272;43.922;2023-12-14T06:22:36;102273.63;;;-8.40;54.39
74893;BME280;63446;56.272;43.922;2023-12-14T06:25:03;102270.97;;;-8.39;54.18
74893;BME280;63446;56.272;43.922;2023-12-14T06:27:31;102264.09;;;-8.38;54.23
74893;BME280;63446;56.272;43.922;2023-12-14T06:29:58;102259.06;;;-8.40;54.42
74893;BME280;63446;56.272;43.922;2023-12-14T06:32:24;102262.56;;;-8.41;54.54
74893;BME280;63446;56.272;43.922;2023-12-14T06:34:50;102272.00;;;-8.41;54.33
74893;BME280;63446;56.272;43.922;2023-12-14T06:37:16;102267.56;;;-8.39;54.28
74893;BME280;63446;56.272;43.922;2023-12-14T06:39:43;102274.22;;;-8.37;54.19
74893;BME280;63446;56.272;43.922;2023-12-14T06:42:09;102278.66;;;-8.39;54.23
74893;BME280;63446;56.272;43.922;2023-12-14T06:44:35;102280.81;;;-8.32;54.24
74893;BME280;63446;56.272;43.922;2023-12-14T06:47:01;102279.88;;;-8.31;54.35
74893;BME280;63446;56.272;43.922;2023-12-14T06:49:27;102273.63;;;-8.27;54.28
74893;BME280;63446;56.272;43.922;2023-12-14T06:51:53;102283.69;;;-8.24;54.32
74893;BME280;63446;56.272;43.922;2023-12-14T06:54:19;102271.59;;;-8.22;54.42
74893;BME280;63446;56.272;43.922;2023-12-14T06:56:45;102266.88;;;-8.16;54.32
74893;BME280;63446;56.272;43.922;2023-12-14T06:59:11;102273.56;;;-8.13;54.29
74893;BME280;63446;56.272;43.922;2023-12-14T07:01:37;102273.88;;;-8.05;54.19
74893;BME280;63446;56.272;43.922;2023-12-14T07:04:03;102284.78;;;-8.01;54.04
74893;BME280;63446;56.272;43.922;2023-12-14T07:06:30;102269.19;;;-7.98;54.06
74893;BME280;63446;56.272;43.922;2023-12-14T07:08:56;102275.75;;;-7.94;54.10
74893;BME280;63446;56.272;43.922;2023-12-14T07:11:22;102266.09;;;-7.91;54.04
74893;BME280;63446;56.272;43.922;2023-12-14T07:13:48;102265.28;;;-7.91;53.92
74893;BME280;63446;56.272;43.922;2023-12-14T07:16:15;102275.75;;;-7.81;53.89
74893;BME280;63446;56.272;43.922;2023-12-14T07:18:43;102275.75;;;-7.81;53.87
74893;BME280;63446;56.272;43.922;2023-12-14T07:21:10;102277.94;;;-7.75;53.93
74893;BME280;63446;56.272;43.922;2023-12-14T07:23:36;102260.78;;;-7.75;53.78
74893;BME280;63446;56.272;43.922;2023-12-14T07:26:03;102273.50;;;-7.73;53.90
74893;BME280;63446;56.272;43.922;2023-12-14T07:28:29;102267.47;;;-7.72;53.92
74893;BME280;63446;56.272;43.922;2023-12-14T07:30:55;102273.19;;;-7.69;53.84
74893;BME280;63446;56.272;43.922;2023-12-14T07:33:21;102273.81;;;-7.65;54.06
74893;BME280;63446;56.272;43.922;2023-12-14T07:35:47;102283.06;;;-7.63;53.92
74893;BME280;63446;56.272;43.922;2023-12-14T07:38:13;102278.34;;;-7.56;54.05
74893;BME280;63446;56.272;43.922;2023-12-14T07:40:39;102271.13;;;-7.51;53.74
74893;BME280;63446;56.272;43.922;2023-12-14T07:43:06;102282.03;;;-7.47;53.82
74893;BME280;63446;56.272;43.922;2023-12-14T07:45:33;102287.91;;;-7.45;53.80
74893;BME280;63446;56.272;43.922;2023-12-14T07:48:00;102285.22;;;-7.44;53.79
74893;BME280;63446;56.272;43.922;2023-12-14T07:50:26;102294.34;;;-7.40;53.65
74893;BME280;63446;56.272;43.922;2023-12-14T07:52:52;102303.59;;;-7.37;53.66
74893;BME280;63446;56.272;43.922;2023-12-14T07:55:20;102294.75;;;-7.33;53.53
74893;BME280;63446;56.272;43.922;2023-12-14T07:57:46;102294.75;;;-7.33;53.57
74893;BME280;63446;56.272;43.922;2023-12-14T08:00:13;102295.25;;;-7.28;53.70
74893;BME280;63446;56.272;43.922;2023-12-14T08:02:39;102284.91;;;-7.26;53.55
74893;BME280;63446;56.272;43.922;2023-12-14T08:05:05;102283.66;;;-7.21;53.53
74893;BME280;63446;56.272;43.922;2023-12-14T08:07:32;102292.66;;;-7.15;53.51
74893;BME280;63446;56.272;43.922;2023-12-14T08:09:59;102285.38;;;-7.08;53.36
74893;BME280;63446;56.272;43.922;2023-12-14T08:12:26;102302.13;;;-7.03;53.05
74893;BME280;63446;56.272;43.922;2023-12-14T08:14:52;102296.88;;;-7.01;53.05
74893;BME280;63446;56.272;43.922;2023-12-14T08:17:18;102293.97;;;-6.97;53.09
74893;BME280;63446;56.272;43.922;2023-12-14T08:19:44;102295.41;;;-6.93;52.86
74893;BME280;63446;56.272;43.922;2023-12-14T08:22:11;102297.75;;;-6.90;52.95
74893;BME280;63446;56.272;43.922;2023-12-14T08:24:39;102293.97;;;-6.84;52.90
74893;BME280;63446;56.272;43.922;2023-12-14T08:27:05;102310.28;;;-6.72;52.78
74893;BME280;63446;56.272;43.922;2023-12-14T08:29:32;102299.53;;;-6.66;52.93
74893;BME280;63446;56.272;43.922;2023-12-14T08:31:58;102288.84;;;-6.60;52.65
74893;BME280;63446;56.272;43.922;2023-12-14T08:34:25;102293.63;;;-6.55;52.69
74893;BME280;63446;56.272;43.922;2023-12-14T08:36:51;102299.28;;;-6.50;52.81
74893;BME280;63446;56.272;43.922;2023-12-14T08:39:18;102296.38;;;-6.46;52.53
74893;BME280;63446;56.272;43.922;2023-12-14T08:41:45;102287.53;;;-6.42;52.61
74893;BME280;63446;56.272;43.922;2023-12-14T08:44:11;102285.53;;;-6.38;52.53
74893;BME280;63446;56.272;43.922;2023-12-14T08:46:45;102288.69;;;-6.34;52.39
74893;BME280;63446;56.272;43.922;2023-12-14T08:49:12;102288.38;;;-6.30;52.42
74893;BME280;63446;56.272;43.922;2023-12-14T08:51:39;102292.25;;;-6.24;52.26
74893;BME280;63446;56.272;43.922;2023-12-14T08:54:06;102275.56;;;-6.19;52.34
74893;BME280;63446;56.272;43.922;2023-12-14T08:56:32;102279.56;;;-6.15;52.24
74893;BME280;63446;56.272;43.922;2023-12-14T08:58:59;102289.97;;;-6.05;52.39
74893;BME280;63446;56.272;43.922;2023-12-14T09:01:25;102284.41;;;-5.99;52.19
74893;BME280;63446;56.272;43.922;2023-12-14T09:03:51;102287.56;;;-5.95;52.10
74893;BME280;63446;56.272;43.922;2023-12-14T09:06:17;102285.91;;;-5.96;51.75
74893;BME280;63446;56.272;43.922;2023-12-14T09:08:44;102280.88;;;-5.98;51.55
74893;BME280;63446;56.272;43.922;2023-12-14T09:11:11;102289.63;;;-6.00;51.72
74893;BME280;63446;56.272;43.922;2023-12-14T09:13:37;102284.50;;;-6.00;52.01
74893;BME280;63446;56.272;43.922;2023-12-14T09:16:03;102294.78;;;-6.00;52.01
74893;BME280;63446;56.272;43.922;2023-12-14T09:18:29;102294.69;;;-5.99;52.10
74893;BME280;63446;56.272;43.922;2023-12-14T09:20:56;102292.94;;;-5.98;52.13
74893;BME280;63446;56.272;43.922;2023-12-14T09:23:22;102293.03;;;-6.00;51.96
74893;BME280;63446;56.272;43.922;2023-12-14T09:25:48;102288.81;;;-6.01;51.66
74893;BME280;63446;56.272;43.922;2023-12-14T09:28:15;102292.69;;;-6.06;51.78
74893;BME280;63446;56.272;43.922;2023-12-14T09:30:41;102287.88;;;-6.11;51.78
74893;BME280;63446;56.272;43.922;2023-12-14T09:33:07;102283.16;;;-6.17;51.82
74893;BME280;63446;56.272;43.922;2023-12-14T09:35:35;102284.09;;;-6.18;51.86
74893;BME280;63446;56.272;43.922;2023-12-14T09:38:03;102278.13;;;-6.19;51.99
74893;BME280;63446;56.272;43.922;2023-12-14T09:40:30;102288.31;;;-6.17;52.04
74893;BME280;63446;56.272;43.922;2023-12-14T09:42:56;102284.56;;;-6.13;51.93
74893;BME280;63446;56.272;43.922;2023-12-14T09:45:24;102286.34;;;-6.13;52.05
74893;BME280;63446;56.272;43.922;2023-12-14T09:47:53;102281.06;;;-6.12;51.92
74893;BME280;63446;56.272;43.922;2023-12-14T09:50:20;102283.53;;;-6.10;51.89
74893;BME280;63446;56.272;43.922;2023-12-14T09:52:47;102285.31;;;-6.11;51.94
74893;BME280;63446;56.272;43.922;2023-12-14T09:55:15;102290.31;;;-6.09;51.97
74893;BME280;63446;56.272;43.922;2023-12-14T09:57:42;102289.59;;;-6.11;51.88
74893;BME280;63446;56.272;43.922;2023-12-14T10:00:10;102282.81;;;-6.12;51.94
74893;BME280;63446;56.272;43.922;2023-12-14T10:02:37;102289.72;;;-6.13;52.08
74893;BME280;63446;56.272;43.922;2023-12-14T10:05:08;102294.06;;;-6.13;51.77
74893;BME280;63446;56.272;43.922;2023-12-14T10:07:42;102278.84;;;-6.17;51.88
74893;BME280;63446;56.272;43.922;2023-12-14T10:10:11;102294.41;;;-6.18;51.82
74893;BME280;63446;56.272;43.922;2023-12-14T10:12:52;102297.06;;;-6.20;52.05
74893;BME280;63446;56.272;43.922;2023-12-14T10:15:19;102297.78;;;-6.18;52.20
74893;BME280;63446;56.272;43.922;2023-12-14T10:17:45;102294.16;;;-6.15;52.06
74893;BME280;63446;56.272;43.922;2023-12-14T10:20:22;102299.19;;;-6.13;52.08
74893;BME280;63446;56.272;43.922;2023-12-14T10:22:52;102304.22;;;-6.12;52.08
74893;BME280;63446;56.272;43.922;2023-12-14T10:25:19;102288.09;;;-6.14;52.02
74893;BME280;63446;56.272;43.922;2023-12-14T10:27:51;102285.63;;;-6.16;52.10
74893;BME280;63446;56.272;43.922;2023-12-14T10:30:18;102276.97;;;-6.15;52.01
74893;BME280;63446;56.272;43.922;2023-12-14T10:32:48;102281.28;;;-6.15;52.03
74893;BME280;63446;56.272;43.922;2023-12-14T10:35:15;102278.63;;;-6.13;52.26
74893;BME280;63446;56.272;43.922;2023-12-14T10:37:46;102275.09;;;-6.12;52.30
74893;BME280;63446;56.272;43.922;2023-12-14T10:40:14;102276.03;;;-6.13;52.16
74893;BME280;63446;56.272;43.922;2023-12-14T10:42:44;102276.97;;;-6.15;52.18
74893;BME280;63446;56.272;43.922;2023-12-14T10:45:15;102271.09;;;-6.17;52.20
74893;BME280;63446;56.272;43.922;2023-12-14T10:47:44;102278.97;;;-6.18;52.20
74893;BME280;63446;56.272;43.922;2023-12-14T10:50:11;102270.50;;;-6.20;52.28
74893;BME280;63446;56.272;43.922;2023-12-14T10:52:38;102262.78;;;-6.20;52.21
74893;BME280;63446;56.272;43.922;2023-12-14T10:55:21;102264.44;;;-6.19;52.34
74893;BME280;63446;56.272;43.922;2023-12-14T10:57:48;102263.50;;;-6.18;52.29
74893;BME280;63446;56.272;43.922;2023-12-14T11:00:17;102255.66;;;-6.17;52.43
74893;BME280;63446;56.272;43.922;2023-12-14T11:02:45;102264.00;;;-6.13;52.45
74893;BME280;63446;56.272;43.922;2023-12-14T11:05:15;102269.13;;;-6.13;52.56
74893;BME280;63446;56.272;43.922;2023-12-14T11:07:48;102264.72;;;-6.11;52.42
74893;BME280;63446;56.272;43.922;2023-12-14T11:10:20;102268.09;;;-6.10;52.41
74893;BME280;63446;56.272;43.922;2023-12-14T11:15:39;102251.84;;;-6.11;52.46
74893;BME280;63446;56.272;43.922;2023-12-14T11:21:02;102255.22;;;-6.10;52.67
74893;BME280;63446;56.272;43.922;2023-12-14T11:23:31;102245.16;;;-6.13;52.56
74893;BME280;63446;56.272;43.922;2023-12-14T11:26:06;102254.72;;;-6.16;52.80
74893;BME280;63446;56.272;43.922;2023-12-14T11:28:35;102248.66;;;-6.15;52.41
74893;BME280;63446;56.272;43.922;2023-12-14T11:31:02;102247.34;;;-6.20;52.49
74893;BME280;63446;56.272;43.922;2023-12-14T11:33:33;102235.78;;;-6.26;52.51
74893;BME280;63446;56.272;43.922;2023-12-14T11:36:00;102242.88;;;-6.29;52.50
74893;BME280;63446;56.272;43.922;2023-12-14T11:38:27;102243.31;;;-6.35;52.62
74893;BME280;63446;56.272;43.922;2023-12-14T11:40:53;102234.91;;;-6.37;52.62
74893;BME280;63446;56.272;43.922;2023-12-14T11:43:19;102242.84;;;-6.41;52.82
74893;BME280;63446;56.272;43.922;2023-12-14T11:45:49;102240.63;;;-6.45;52.81
74893;BME280;63446;56.272;43.922;2023-12-14T11:48:15;102235.78;;;-6.50;52.92
74893;BME280;63446;56.272;43.922;2023-12-14T11:50:42;102240.66;;;-6.58;52.82
74893;BME280;63446;56.272;43.922;2023-12-14T11:53:09;102235.75;;;-6.61;52.90
74893;BME280;63446;56.272;43.922;2023-12-14T11:55:36;102230.09;;;-6.66;52.88
74893;BME280;63446;56.272;43.922;2023-12-14T11:58:04;102235.59;;;-6.71;53.00
74893;BME280;63446;56.272;43.922;2023-12-14T12:00:31;102250.88;;;-6.69;52.98
74893;BME280;63446;56.272;43.922;2023-12-14T12:03:16;102240.00;;;-6.73;52.94
74893;BME280;63446;56.272;43.922;2023-12-14T12:05:43;102231.59;;;-6.75;53.04
74893;BME280;63446;56.272;43.922;2023-12-14T12:08:12;102249.59;;;-6.75;53.05
74893;BME280;63446;56.272;43.922;2023-12-14T12:10:40;102235.91;;;-6.75;53.20
74893;BME280;63446;56.272;43.922;2023-12-14T12:13:15;102237.75;;;-6.77;53.25
74893;BME280;63446;56.272;43.922;2023-12-14T12:15:42;102249.72;;;-6.76;53.02
74893;BME280;63446;56.272;43.922;2023-12-14T12:18:10;102238.69;;;-6.78;53.22
74893;BME280;63446;56.272;43.922;2023-12-14T12:20:37;102232.13;;;-6.82;53.34
74893;BME280;63446;56.272;43.922;2023-12-14T12:23:03;102221.38;;;-6.88;53.33
74893;BME280;63446;56.272;43.922;2023-12-14T12:25:33;102227.34;;;-6.87;53.56
74893;BME280;63446;56.272;43.922;2023-12-14T12:28:00;102234.31;;;-6.89;53.49
74893;BME280;63446;56.272;43.922;2023-12-14T12:30:28;102244.72;;;-6.91;53.48
74893;BME280;63446;56.272;43.922;2023-12-14T12:32:55;102245.06;;;-6.95;53.61
74893;BME280;63446;56.272;43.922;2023-12-14T12:35:23;102236.59;;;-6.97;53.67
74893;BME280;63446;56.272;43.922;2023-12-14T12:37:50;102241.34;;;-7.04;53.65
74893;BME280;63446;56.272;43.922;2023-12-14T12:40:21;102237.88;;;-7.03;53.75
74893;BME280;63446;56.272;43.922;2023-12-14T12:42:47;102236.94;;;-7.02;53.70
74893;BME280;63446;56.272;43.922;2023-12-14T12:45:15;102240.31;;;-7.01;53.66
74893;BME280;63446;56.272;43.922;2023-12-14T12:47:42;102236.94;;;-7.02;53.70